Time;durP1;ratioP1;P1;durP2;ratioP2;P2;SDS_P1;SDS_P2;PMS_P1;PMS_P2;Temp;Humidity;BMP_temperature;BMP_pressure;BME280_temperature;BME280_humidity;BME280_pressure;Samples;Min_cycle;Max_cycle;Signal;HPM_P1;HPM_P2
2022/10/29 00:00:00;;;;;;;6.60;1.90;;;16.70;82.50;;;;;;5054200;28;20025;-69
2022/10/29 00:02:25;;;;;;;7.43;2.00;;;16.70;82.50;;;;;;5054446;28;20027;-70
2022/10/29 00:04:51;;;;;;;6.40;2.25;;;16.70;82.50;;;;;;5054155;28;20025;-69
2022/10/29 00:07:16;;;;;;;7.78;2.40;;;16.60;82.50;;;;;;5053280;28;20123;-68
2022/10/29 00:09:42;;;;;;;7.00;2.45;;;16.60;82.70;;;;;;5053649;28;20492;-68
2022/10/29 00:12:08;;;;;;;7.65;2.45;;;16.50;82.90;;;;;;5052888;28;20041;-68
2022/10/29 00:14:33;;;;;;;9.50;2.42;;;16.60;82.90;;;;;;5053636;28;20182;-68
2022/10/29 00:16:59;;;;;;;7.30;2.45;;;16.60;82.90;;;;;;5053673;28;20013;-69
2022/10/29 00:19:26;;;;;;;5.88;2.50;;;16.60;82.90;;;;;;5053384;28;20031;-69
2022/10/29 00:21:52;;;;;;;5.55;2.22;;;16.60;82.90;;;;;;5054113;28;20502;-68
2022/10/29 00:24:17;;;;;;;6.65;2.17;;;16.60;82.60;;;;;;5052243;28;20092;-68
2022/10/29 00:26:43;;;;;;;5.50;2.00;;;16.50;82.60;;;;;;5053403;28;20017;-69
2022/10/29 00:29:08;;;;;;;7.57;2.50;;;16.50;82.70;;;;;;5051919;28;20041;-68
2022/10/29 00:31:34;;;;;;;7.50;2.47;;;16.50;82.60;;;;;;5052979;28;20025;-69
2022/10/29 00:33:59;;;;;;;5.82;2.03;;;16.50;82.40;;;;;;5053318;28;20079;-69
2022/10/29 00:36:27;;;;;;;6.32;2.05;;;16.50;82.30;;;;;;5051982;28;20075;-69
2022/10/29 00:38:53;;;;;;;5.85;2.60;;;16.40;82.30;;;;;;5052803;28;20029;-69
2022/10/29 00:41:22;;;;;;;5.00;1.90;;;16.40;82.20;;;;;;5053605;28;20028;-70
2022/10/29 00:44:12;;;;;;;6.63;2.30;;;16.30;82.20;;;;;;5054208;28;20091;-69
2022/10/29 00:46:43;;;;;;;4.82;2.17;;;16.30;82.20;;;;;;5052988;28;20059;-70
2022/10/29 00:49:10;;;;;;;5.90;1.88;;;16.30;82.20;;;;;;5052743;28;20483;-69
2022/10/29 00:51:37;;;;;;;6.15;2.10;;;16.30;82.10;;;;;;5053694;28;20021;-69
2022/10/29 00:54:08;;;;;;;6.35;2.20;;;16.20;82.10;;;;;;5051908;28;20028;-70
2022/10/29 00:56:38;;;;;;;6.90;2.23;;;16.20;82.10;;;;;;5053473;28;20083;-69
2022/10/29 00:59:06;;;;;;;5.38;1.98;;;16.20;82.10;;;;;;5052549;28;20021;-70
2022/10/29 01:01:32;;;;;;;5.03;2.10;;;16.10;82.00;;;;;;5051837;28;20029;-69
2022/10/29 01:03:59;;;;;;;8.15;2.53;;;16.10;82.00;;;;;;5052048;28;20052;-70
2022/10/29 01:06:27;;;;;;;8.57;2.58;;;16.10;82.00;;;;;;5053353;28;20031;-70
2022/10/29 01:08:52;;;;;;;7.47;2.30;;;16.10;81.90;;;;;;5053092;28;20032;-69
2022/10/29 01:11:36;;;;;;;6.25;2.30;;;16.00;82.00;;;;;;5053440;28;20036;-70
2022/10/29 01:14:17;;;;;;;7.40;2.70;;;15.90;82.20;;;;;;5051863;28;20027;-70
2022/10/29 01:16:49;;;;;;;9.60;2.72;;;15.90;82.40;;;;;;5052804;28;20071;-70
2022/10/29 01:20:03;;;;;;;7.38;2.53;;;15.90;82.40;;;;;;5052376;28;20052;-69
2022/10/29 01:22:39;;;;;;;8.98;2.60;;;15.90;82.30;;;;;;5047186;28;20041;-69
2022/10/29 01:25:37;;;;;;;5.40;2.20;;;15.80;82.20;;;;;;5051331;28;20017;-69
2022/10/29 01:28:23;;;;;;;8.32;2.45;;;15.80;82.20;;;;;;5052163;28;20052;-69
2022/10/29 01:31:30;;;;;;;7.07;2.45;;;15.70;82.30;;;;;;5051552;28;20029;-68
2022/10/29 01:33:55;;;;;;;5.57;2.60;;;15.70;82.50;;;;;;5052345;28;20031;-69
2022/10/29 01:36:30;;;;;;;7.00;2.88;;;15.60;82.50;;;;;;5052194;28;20048;-69
2022/10/29 01:38:58;;;;;;;7.57;3.00;;;15.70;82.50;;;;;;5051705;28;20052;-69
2022/10/29 01:41:42;;;;;;;6.85;2.90;;;15.70;82.30;;;;;;5050638;28;20079;-70
2022/10/29 01:44:22;;;;;;;6.28;3.20;;;15.60;82.20;;;;;;5050695;28;20024;-70
2022/10/29 01:46:54;;;;;;;6.55;3.25;;;15.60;82.30;;;;;;5050379;28;20093;-70
2022/10/29 01:49:26;;;;;;;6.90;3.47;;;15.60;82.20;;;;;;5051519;28;20025;-68
2022/10/29 01:51:54;;;;;;;7.93;3.45;;;15.60;82.40;;;;;;5051503;28;20025;-68
2022/10/29 01:54:20;;;;;;;8.70;3.10;;;15.60;82.30;;;;;;5051460;28;20021;-69
2022/10/29 01:56:59;;;;;;;7.38;3.30;;;15.60;82.50;;;;;;5051620;28;20025;-68
2022/10/29 01:59:30;;;;;;;6.20;3.13;;;15.50;82.60;;;;;;5051488;28;20021;-69
2022/10/29 02:02:18;;;;;;;7.40;3.03;;;15.50;82.80;;;;;;5051519;28;20096;-68
2022/10/29 02:05:14;;;;;;;7.93;3.53;;;15.50;82.90;;;;;;5051689;28;20032;-69
2022/10/29 02:07:49;;;;;;;6.88;3.50;;;15.60;83.10;;;;;;5049669;28;20553;-69
2022/10/29 02:10:52;;;;;;;9.32;3.50;;;15.60;83.10;;;;;;5050924;28;20579;-69
2022/10/29 02:13:26;;;;;;;8.00;3.60;;;15.60;83.20;;;;;;5035800;28;20041;-69
2022/10/29 02:15:54;;;;;;;9.07;3.80;;;15.60;83.40;;;;;;5050528;28;20029;-69
2022/10/29 02:18:20;;;;;;;7.78;3.72;;;15.60;83.40;;;;;;5051241;28;20017;-68
2022/10/29 02:20:46;;;;;;;11.05;4.03;;;15.60;83.30;;;;;;5050804;28;20028;-68
2022/10/29 02:23:13;;;;;;;9.77;3.67;;;15.60;83.40;;;;;;5051795;28;20387;-69
2022/10/29 02:25:39;;;;;;;8.57;3.90;;;15.60;83.50;;;;;;5054483;28;20029;-69
2022/10/29 02:28:05;;;;;;;7.95;3.83;;;15.60;83.50;;;;;;5053954;28;20044;-69
2022/10/29 02:30:30;;;;;;;7.97;3.65;;;15.60;83.60;;;;;;5053763;28;20029;-69
2022/10/29 02:32:56;;;;;;;10.27;4.20;;;15.60;83.60;;;;;;5051925;28;20029;-69
2022/10/29 02:35:22;;;;;;;10.07;4.45;;;15.60;83.70;;;;;;5050215;28;20027;-69
2022/10/29 02:37:48;;;;;;;10.20;4.43;;;15.60;83.70;;;;;;5050387;28;20025;-69
2022/10/29 02:40:13;;;;;;;8.43;4.53;;;15.60;83.70;;;;;;5049890;28;20028;-69
2022/10/29 02:42:39;;;;;;;7.22;4.47;;;15.60;83.90;;;;;;5051620;28;20047;-69
2022/10/29 02:45:05;;;;;;;10.18;4.60;;;15.60;83.90;;;;;;5052817;28;20029;-69
2022/10/29 02:47:30;;;;;;;10.98;4.57;;;15.60;84.10;;;;;;5054034;28;20112;-69
2022/10/29 02:49:56;;;;;;;7.28;4.28;;;15.60;84.30;;;;;;5051967;28;20119;-69
2022/10/29 02:52:21;;;;;;;9.57;4.30;;;15.50;84.40;;;;;;5053392;28;20025;-68
2022/10/29 02:54:47;;;;;;;7.57;3.83;;;15.60;84.60;;;;;;5052861;28;20025;-68
2022/10/29 02:57:13;;;;;;;7.60;4.00;;;15.50;84.50;;;;;;5053412;28;20092;-68
2022/10/29 02:59:38;;;;;;;6.55;3.75;;;15.60;84.50;;;;;;5052680;28;20029;-68
2022/10/29 03:02:04;;;;;;;9.30;5.03;;;15.60;84.50;;;;;;5053888;28;20029;-69
2022/10/29 03:04:30;;;;;;;7.78;4.45;;;15.60;84.40;;;;;;5053672;28;20082;-69
2022/10/29 03:06:55;;;;;;;9.02;4.53;;;15.60;84.40;;;;;;5053884;28;20017;-69
2022/10/29 03:09:21;;;;;;;7.18;4.22;;;15.60;84.50;;;;;;5053000;28;20457;-68
2022/10/29 03:11:47;;;;;;;9.57;4.78;;;15.60;84.60;;;;;;5052400;28;20032;-69
2022/10/29 03:14:13;;;;;;;8.13;5.40;;;15.60;84.60;;;;;;5053030;28;20017;-69
2022/10/29 03:16:38;;;;;;;7.90;4.45;;;15.60;84.80;;;;;;5052663;28;20036;-69
2022/10/29 03:19:04;;;;;;;10.23;4.88;;;15.60;84.90;;;;;;5054015;28;20032;-69
2022/10/29 03:21:29;;;;;;;8.13;4.90;;;15.70;85.00;;;;;;5054064;28;20633;-69
2022/10/29 03:23:55;;;;;;;7.65;4.43;;;15.60;85.00;;;;;;5053728;28;20104;-69
2022/10/29 03:26:20;;;;;;;6.82;4.38;;;15.60;84.90;;;;;;5053649;28;20049;-69
2022/10/29 03:28:46;;;;;;;7.50;4.63;;;15.70;85.00;;;;;;5053753;28;20403;-69
2022/10/29 03:31:11;;;;;;;9.35;5.00;;;15.70;85.00;;;;;;5053543;28;20659;-68
2022/10/29 03:33:37;;;;;;;8.02;5.10;;;15.70;85.00;;;;;;5053814;28;20479;-68
2022/10/29 03:36:05;;;;;;;9.02;5.32;;;15.70;85.00;;;;;;5053417;28;20024;-68
2022/10/29 03:38:31;;;;;;;8.45;5.35;;;15.70;85.00;;;;;;5053098;28;20028;-69
2022/10/29 03:40:57;;;;;;;9.15;5.50;;;15.70;85.10;;;;;;5053399;28;20082;-69
2022/10/29 03:43:23;;;;;;;11.57;6.32;;;15.70;85.10;;;;;;5051767;28;20040;-68
2022/10/29 03:45:53;;;;;;;9.82;5.72;;;15.70;85.20;;;;;;5051991;28;20017;-69
2022/10/29 03:48:19;;;;;;;8.98;5.35;;;15.70;85.30;;;;;;5051953;28;20632;-68
2022/10/29 03:50:56;;;;;;;9.52;6.05;;;15.70;85.30;;;;;;5051798;28;20021;-69
2022/10/29 03:53:23;;;;;;;9.88;5.95;;;15.70;85.40;;;;;;5051472;28;20029;-68
2022/10/29 03:55:50;;;;;;;10.13;5.95;;;15.70;85.50;;;;;;5051454;28;20021;-69
2022/10/29 03:58:16;;;;;;;9.00;4.97;;;15.70;85.50;;;;;;5053672;28;20032;-69
2022/10/29 04:00:42;;;;;;;8.75;5.40;;;15.70;85.50;;;;;;5052458;28;20029;-69
2022/10/29 04:03:08;;;;;;;9.38;5.90;;;15.70;85.60;;;;;;5052312;28;20025;-69
2022/10/29 04:05:33;;;;;;;12.90;6.25;;;15.70;85.70;;;;;;5053417;28;20028;-70
2022/10/29 04:07:59;;;;;;;8.85;5.90;;;15.70;85.80;;;;;;5051589;28;20033;-70
2022/10/29 04:10:25;;;;;;;8.98;6.20;;;15.70;85.80;;;;;;5052776;28;20029;-70
2022/10/29 04:12:51;;;;;;;11.13;5.80;;;15.80;85.80;;;;;;5053358;28;20032;-69
2022/10/29 04:15:17;;;;;;;9.48;5.30;;;15.80;85.80;;;;;;5052953;28;20017;-69
2022/10/29 04:17:42;;;;;;;10.38;6.22;;;15.80;85.90;;;;;;5052248;28;20024;-69
2022/10/29 04:20:08;;;;;;;9.05;5.70;;;15.80;85.80;;;;;;5051977;28;20099;-68
2022/10/29 04:22:34;;;;;;;12.73;7.00;;;15.90;85.70;;;;;;5052276;28;20024;-68
2022/10/29 04:25:00;;;;;;;9.38;6.53;;;15.90;85.70;;;;;;5051974;28;20541;-68
2022/10/29 04:27:26;;;;;;;11.18;6.03;;;15.80;85.90;;;;;;5052101;28;20033;-69
2022/10/29 04:29:52;;;;;;;9.93;6.05;;;15.80;86.10;;;;;;5051597;28;20636;-68
2022/10/29 04:32:17;;;;;;;9.60;6.10;;;15.80;86.20;;;;;;5051926;28;20029;-70
2022/10/29 04:34:43;;;;;;;11.38;6.25;;;15.80;86.20;;;;;;5050480;28;20013;-68
2022/10/29 04:37:08;;;;;;;8.88;5.85;;;15.80;86.20;;;;;;5051820;28;20071;-68
2022/10/29 04:39:34;;;;;;;11.90;6.40;;;15.80;86.20;;;;;;5051698;28;20543;-68
2022/10/29 04:42:00;;;;;;;11.20;6.28;;;15.80;86.20;;;;;;5051690;28;20482;-69
2022/10/29 04:44:25;;;;;;;11.00;6.43;;;15.80;86.20;;;;;;5051695;28;20032;-68
2022/10/29 04:46:51;;;;;;;9.68;6.25;;;15.80;86.20;;;;;;5051581;28;20384;-68
2022/10/29 04:49:16;;;;;;;12.05;5.85;;;15.80;86.30;;;;;;5051677;28;20092;-68
2022/10/29 04:51:42;;;;;;;8.13;5.38;;;15.80;86.40;;;;;;5049915;28;20475;-69
2022/10/29 04:54:07;;;;;;;8.80;5.80;;;15.80;86.40;;;;;;5051484;28;20423;-69
2022/10/29 04:56:33;;;;;;;10.88;6.35;;;15.80;86.40;;;;;;5043460;28;20013;-68
2022/10/29 04:58:58;;;;;;;10.57;5.78;;;15.80;86.40;;;;;;5039609;28;20375;-69
2022/10/29 05:01:24;;;;;;;9.38;6.00;;;15.80;86.30;;;;;;5050826;28;20017;-69
2022/10/29 05:03:50;;;;;;;9.10;5.68;;;15.80;86.20;;;;;;5051041;28;20096;-69
2022/10/29 05:06:15;;;;;;;10.77;5.53;;;15.80;86.10;;;;;;5049598;28;20115;-68
2022/10/29 05:08:41;;;;;;;10.35;5.72;;;15.80;86.10;;;;;;5049304;28;20033;-68
2022/10/29 05:11:07;;;;;;;11.75;6.18;;;15.80;86.20;;;;;;5051045;28;20027;-69
2022/10/29 05:13:33;;;;;;;10.98;5.95;;;15.70;86.20;;;;;;5051007;28;20031;-69
2022/10/29 05:15:59;;;;;;;10.35;6.10;;;15.80;86.30;;;;;;5049839;28;20510;-69
2022/10/29 05:18:25;;;;;;;11.05;6.15;;;15.80;86.30;;;;;;5050691;28;20476;-68
2022/10/29 05:20:54;;;;;;;10.65;6.43;;;15.80;86.30;;;;;;5051050;28;20125;-68
2022/10/29 05:23:19;;;;;;;10.82;6.00;;;15.80;86.30;;;;;;5050594;28;20025;-68
2022/10/29 05:25:48;;;;;;;11.43;5.93;;;15.80;86.30;;;;;;5049683;28;20119;-68
2022/10/29 05:28:17;;;;;;;9.18;6.10;;;15.80;86.30;;;;;;5049707;28;20017;-68
2022/10/29 05:30:43;;;;;;;12.00;7.47;;;15.80;86.30;;;;;;5050345;28;20049;-68
2022/10/29 05:33:11;;;;;;;11.32;6.55;;;15.80;86.40;;;;;;5050346;28;20029;-69
2022/10/29 05:35:36;;;;;;;9.80;5.60;;;15.80;86.40;;;;;;5050591;28;20021;-69
2022/10/29 05:38:02;;;;;;;11.07;5.70;;;15.90;86.40;;;;;;5050527;28;20522;-69
2022/10/29 05:40:28;;;;;;;11.20;5.75;;;15.90;86.30;;;;;;5050426;28;20055;-69
2022/10/29 05:42:54;;;;;;;9.70;5.70;;;15.90;86.20;;;;;;5050622;28;20471;-69
2022/10/29 05:45:19;;;;;;;11.77;6.10;;;16.00;86.10;;;;;;5050445;28;20024;-68
2022/10/29 05:47:45;;;;;;;9.20;6.05;;;16.00;86.10;;;;;;5050506;28;20074;-68
2022/10/29 05:50:11;;;;;;;9.45;5.82;;;16.00;86.00;;;;;;5048928;28;20087;-68
2022/10/29 05:52:38;;;;;;;8.02;5.90;;;16.00;86.00;;;;;;5050134;28;20017;-69
2022/10/29 05:55:04;;;;;;;9.55;6.28;;;16.10;86.00;;;;;;5048740;28;20025;-68
2022/10/29 05:57:29;;;;;;;10.80;6.43;;;16.00;86.00;;;;;;5049244;28;20028;-68
2022/10/29 05:59:55;;;;;;;12.45;6.97;;;16.00;86.10;;;;;;5050369;28;20383;-68
2022/10/29 06:02:21;;;;;;;14.65;7.07;;;16.00;86.30;;;;;;5048274;28;20526;-68
2022/10/29 06:04:46;;;;;;;10.50;6.97;;;15.90;86.40;;;;;;5050326;28;20487;-68
2022/10/29 06:07:12;;;;;;;10.27;6.38;;;16.00;86.60;;;;;;5050012;28;20029;-68
2022/10/29 06:09:37;;;;;;;10.27;6.03;;;16.00;86.60;;;;;;5049974;28;20032;-69
2022/10/29 06:12:03;;;;;;;9.77;6.55;;;16.00;86.50;;;;;;5049951;28;20045;-68
2022/10/29 06:14:29;;;;;;;17.02;8.30;;;16.00;86.50;;;;;;5050450;28;20028;-68
2022/10/29 06:16:54;;;;;;;11.57;7.85;;;16.00;86.60;;;;;;5048264;28;20028;-68
2022/10/29 06:19:20;;;;;;;12.75;8.18;;;15.90;86.70;;;;;;5050167;28;20044;-68
2022/10/29 06:21:45;;;;;;;12.63;8.25;;;15.90;86.90;;;;;;5049875;28;20130;-68
2022/10/29 06:24:12;;;;;;;12.55;7.10;;;15.90;87.10;;;;;;5050139;28;20107;-68
2022/10/29 06:26:38;;;;;;;14.57;8.82;;;15.90;87.20;;;;;;5048599;28;20060;-68
2022/10/29 06:29:03;;;;;;;12.38;7.25;;;16.00;88.10;;;;;;5049985;28;20048;-69
2022/10/29 06:31:29;;;;;;;13.88;7.85;;;16.00;87.40;;;;;;5048695;28;20134;-69
2022/10/29 06:33:55;;;;;;;15.85;9.05;;;16.00;87.50;;;;;;5049737;28;20017;-69
2022/10/29 06:36:20;;;;;;;11.10;7.18;;;16.00;87.70;;;;;;5049860;28;20032;-69
2022/10/29 06:38:46;;;;;;;14.00;8.63;;;16.00;87.80;;;;;;5049683;28;20491;-69
2022/10/29 06:41:12;;;;;;;12.48;7.70;;;16.00;87.90;;;;;;5049994;28;20025;-69
2022/10/29 06:43:37;;;;;;;15.02;8.85;;;16.00;87.80;;;;;;5049692;28;20028;-69
2022/10/29 06:46:03;;;;;;;13.02;7.68;;;16.10;87.90;;;;;;5049717;28;20068;-69
2022/10/29 06:48:29;;;;;;;11.93;7.03;;;16.10;87.80;;;;;;5048222;28;20094;-69
2022/10/29 06:50:58;;;;;;;8.65;6.05;;;16.20;87.60;;;;;;5048433;28;20039;-68
2022/10/29 06:53:23;;;;;;;13.20;6.78;;;16.20;87.40;;;;;;5049919;28;20013;-68
2022/10/29 06:55:49;;;;;;;12.07;7.07;;;16.30;87.30;;;;;;5049764;28;20021;-67
2022/10/29 06:58:16;;;;;;;13.80;7.80;;;16.30;87.20;;;;;;5049516;28;20021;-68
2022/10/29 07:00:43;;;;;;;13.13;8.23;;;16.30;87.10;;;;;;5049593;28;20483;-69
2022/10/29 07:03:12;;;;;;;12.25;6.88;;;16.30;87.10;;;;;;5048862;28;20028;-69
2022/10/29 07:05:38;;;;;;;17.02;9.35;;;16.30;87.00;;;;;;5049364;28;20021;-68
2022/10/29 07:08:03;;;;;;;12.27;7.63;;;16.30;87.00;;;;;;5049415;28;20396;-68
2022/10/29 07:10:31;;;;;;;14.10;8.38;;;16.30;87.10;;;;;;5049796;28;20052;-68
2022/10/29 07:12:57;;;;;;;10.00;7.13;;;16.30;87.00;;;;;;5049613;28;20036;-68
2022/10/29 07:15:22;;;;;;;12.40;8.00;;;16.30;86.90;;;;;;5049335;28;20099;-68
2022/10/29 07:18:04;;;;;;;11.55;7.38;;;16.30;87.00;;;;;;5049542;28;20111;-68
2022/10/29 07:20:31;;;;;;;;;;;16.30;87.10;;;;;;5048392;28;20399;-68
2022/10/29 07:22:57;;;;;;;11.45;7.40;;;16.20;87.30;;;;;;5049504;28;19967;-68
2022/10/29 07:25:23;;;;;;;12.52;7.68;;;16.20;87.60;;;;;;5049176;28;20100;-67
2022/10/29 07:27:48;;;;;;;14.75;8.18;;;16.20;87.60;;;;;;5046434;28;20028;-68
2022/10/29 07:30:14;;;;;;;17.85;9.18;;;16.30;87.60;;;;;;5048450;28;20021;-67
2022/10/29 07:32:40;;;;;;;15.30;9.30;;;16.30;87.50;;;;;;5051931;28;20158;-68
2022/10/29 07:35:06;;;;;;;13.00;7.38;;;16.30;87.70;;;;;;5051698;28;20509;-68
2022/10/29 07:37:31;;;;;;;15.68;8.38;;;16.30;87.70;;;;;;5051740;28;20025;-68
2022/10/29 07:39:57;;;;;;;13.90;8.82;;;16.40;87.80;;;;;;5050534;28;20024;-68
2022/10/29 07:42:23;;;;;;;12.15;7.60;;;16.40;87.80;;;;;;5051444;28;20100;-69
2022/10/29 07:44:48;;;;;;;14.75;9.48;;;16.40;87.80;;;;;;5051795;28;20017;-68
2022/10/29 07:47:14;;;;;;;14.57;9.77;;;16.50;87.90;;;;;;5051708;28;20491;-68
2022/10/29 07:49:39;;;;;;;19.55;10.95;;;16.60;87.90;;;;;;5051644;28;20021;-68
2022/10/29 07:52:05;;;;;;;15.98;8.90;;;16.70;88.00;;;;;;5050150;28;20017;-68
2022/10/29 07:54:30;;;;;;;13.55;8.88;;;16.70;87.80;;;;;;5051706;28;20017;-68
2022/10/29 07:56:56;;;;;;;14.98;9.43;;;16.80;87.60;;;;;;5050053;28;20124;-67
2022/10/29 07:59:21;;;;;;;19.02;9.52;;;16.80;87.60;;;;;;5051051;28;20027;-68
2022/10/29 08:01:47;;;;;;;12.30;7.30;;;16.90;87.60;;;;;;5049594;28;20029;-68
2022/10/29 08:04:12;;;;;;;17.27;9.57;;;16.90;87.50;;;;;;5051063;28;20036;-67
2022/10/29 08:06:38;;;;;;;13.52;8.30;;;16.90;87.40;;;;;;5051218;28;20484;-68
2022/10/29 08:09:04;;;;;;;17.63;9.60;;;16.90;87.40;;;;;;5049482;28;20115;-68
2022/10/29 08:11:31;;;;;;;15.73;10.05;;;16.90;87.70;;;;;;5048810;28;20021;-68
2022/10/29 08:13:56;;;;;;;13.43;8.00;;;17.00;87.70;;;;;;5050874;28;20040;-68
2022/10/29 08:16:22;;;;;;;13.20;8.38;;;17.00;87.50;;;;;;5051170;28;20025;-68
2022/10/29 08:18:48;;;;;;;14.88;8.32;;;17.10;87.40;;;;;;5050919;28;20018;-68
2022/10/29 08:21:14;;;;;;;14.45;9.32;;;17.10;87.10;;;;;;5051426;28;20484;-68
2022/10/29 08:23:39;;;;;;;17.48;9.63;;;17.20;87.10;;;;;;5048400;28;20009;-68
2022/10/29 08:26:05;;;;;;;15.02;9.00;;;17.20;86.90;;;;;;5050944;28;20036;-68
2022/10/29 08:28:30;;;;;;;17.42;11.07;;;17.30;87.00;;;;;;5050966;28;20021;-68
2022/10/29 08:30:56;;;;;;;15.55;9.88;;;17.20;87.00;;;;;;5050874;28;20074;-69
2022/10/29 08:33:21;;;;;;;16.02;8.80;;;17.30;87.20;;;;;;5050929;28;20080;-68
2022/10/29 08:35:47;;;;;;;17.02;9.05;;;17.20;87.20;;;;;;5050848;28;20021;-68
2022/10/29 08:38:13;;;;;;;16.17;9.98;;;17.30;87.00;;;;;;5049008;28;20391;-68
2022/10/29 08:40:58;;;;;;;16.30;10.10;;;17.30;87.10;;;;;;5050026;28;20025;-68
2022/10/29 08:43:50;;;;;;;13.90;9.38;;;17.40;87.10;;;;;;5048239;28;20047;-68
2022/10/29 08:46:38;;;;;;;12.98;7.00;;;17.40;87.10;;;;;;5050070;28;20047;-68
2022/10/29 08:49:09;;;;;;;15.85;8.40;;;17.60;86.80;;;;;;5048173;28;20078;-68
2022/10/29 08:51:41;;;;;;;12.00;7.80;;;17.60;86.50;;;;;;5050344;28;20116;-69
2022/10/29 08:54:12;;;;;;;15.30;9.88;;;17.70;86.20;;;;;;5050389;28;20104;-68
2022/10/29 08:56:43;;;;;;;14.45;8.18;;;17.70;86.20;;;;;;5050307;28;20036;-69
2022/10/29 08:59:21;;;;;;;11.85;7.40;;;17.80;86.10;;;;;;5050486;28;20017;-69
2022/10/29 09:01:47;;;;;;;15.50;8.60;;;17.80;86.00;;;;;;5049331;28;20207;-69
2022/10/29 09:04:21;;;;;;;11.88;7.97;;;17.80;85.80;;;;;;5049806;28;20542;-68
2022/10/29 09:06:55;;;;;;;15.90;8.25;;;17.90;85.70;;;;;;5049327;28;20195;-68
2022/10/29 09:09:33;;;;;;;11.68;7.28;;;18.00;85.50;;;;;;5047336;28;20551;-68
2022/10/29 09:12:06;;;;;;;17.83;10.05;;;18.00;85.30;;;;;;5050249;28;20017;-69
2022/10/29 09:14:49;;;;;;;19.33;10.07;;;18.00;85.10;;;;;;5050848;28;20025;-69
2022/10/29 09:17:37;;;;;;;15.75;9.68;;;17.90;85.00;;;;;;5047865;28;20096;-70
2022/10/29 09:20:27;;;;;;;14.82;8.85;;;18.00;85.00;;;;;;5047468;28;20025;-69
2022/10/29 09:23:04;;;;;;;16.90;9.90;;;18.00;85.00;;;;;;5050575;28;20515;-68
2022/10/29 09:25:37;;;;;;;15.52;8.68;;;18.00;84.90;;;;;;5048981;28;20025;-69
2022/10/29 09:28:52;;;;;;;14.40;8.00;;;18.10;84.90;;;;;;5049598;28;20021;-69
2022/10/29 09:31:42;;;;;;;15.70;8.68;;;18.10;84.80;;;;;;5042290;28;20033;-69
2022/10/29 09:34:38;;;;;;;16.00;9.73;;;18.20;85.30;;;;;;5048904;28;20079;-68
2022/10/29 09:37:22;;;;;;;15.30;8.27;;;18.20;84.50;;;;;;5049324;28;20099;-68
2022/10/29 09:39:48;;;;;;;10.68;7.05;;;18.30;84.50;;;;;;5046095;28;20112;-68
2022/10/29 09:42:20;;;;;;;14.23;8.38;;;18.30;84.30;;;;;;5042816;28;20028;-68
2022/10/29 09:44:51;;;;;;;;;;;18.30;84.20;;;;;;5044675;28;20106;-68
2022/10/29 09:47:34;;;;;;;14.93;6.72;;;18.30;84.00;;;;;;5042622;28;19908;-68
2022/10/29 09:50:11;;;;;;;11.95;7.55;;;18.40;84.00;;;;;;5041802;28;20009;-68
2022/10/29 09:52:40;;;;;;;13.20;7.65;;;18.40;84.00;;;;;;5040883;28;20083;-68
2022/10/29 09:55:10;;;;;;;12.70;6.95;;;18.40;83.80;;;;;;5040834;28;20108;-68
2022/10/29 09:57:38;;;;;;;12.68;7.63;;;18.50;83.70;;;;;;5042293;28;20083;-69
2022/10/29 10:00:22;;;;;;;12.13;7.18;;;18.50;83.60;;;;;;5042292;28;20545;-68
2022/10/29 10:02:53;;;;;;;13.68;8.13;;;18.50;83.60;;;;;;5037835;28;20025;-68
2022/10/29 10:05:30;;;;;;;11.63;6.38;;;18.50;83.50;;;;;;5043407;28;20029;-68
2022/10/29 10:08:07;;;;;;;14.23;8.70;;;18.60;83.40;;;;;;5044487;28;20017;-68
2022/10/29 10:10:37;;;;;;;10.77;6.72;;;18.50;83.30;;;;;;5046658;28;20025;-69
2022/10/29 10:13:05;;;;;;;11.65;6.93;;;18.60;83.30;;;;;;5048275;28;20128;-69
2022/10/29 10:15:36;;;;;;;10.45;6.63;;;18.60;83.20;;;;;;5049907;28;20025;-69
2022/10/29 10:18:17;;;;;;;13.60;9.15;;;18.60;83.20;;;;;;5049701;28;20017;-68
2022/10/29 10:20:57;;;;;;;14.60;8.98;;;18.60;83.20;;;;;;5049223;28;20399;-69
2022/10/29 10:23:26;;;;;;;13.00;7.70;;;18.60;83.10;;;;;;5049985;28;20607;-69
2022/10/29 10:25:53;;;;;;;14.30;8.43;;;18.70;83.10;;;;;;5048554;28;20024;-68
2022/10/29 10:28:30;;;;;;;13.75;8.20;;;18.60;83.10;;;;;;5046621;28;20025;-69
2022/10/29 10:31:15;;;;;;;13.15;9.35;;;18.70;83.10;;;;;;5047221;28;20096;-69
2022/10/29 10:33:52;;;;;;;15.13;9.73;;;18.60;82.90;;;;;;5040588;28;20096;-68
2022/10/29 10:36:22;;;;;;;15.57;9.35;;;18.60;83.20;;;;;;5049841;28;20021;-68
2022/10/29 10:38:53;;;;;;;11.80;8.13;;;18.60;83.30;;;;;;5049916;28;20021;-68
2022/10/29 10:41:31;;;;;;;13.33;8.60;;;18.70;83.30;;;;;;5049422;28;20021;-69
2022/10/29 10:44:02;;;;;;;13.65;7.70;;;18.70;83.10;;;;;;5049709;28;20036;-69
2022/10/29 10:46:38;;;;;;;11.18;7.88;;;19.00;83.00;;;;;;5049841;28;20104;-69
2022/10/29 10:49:22;;;;;;;13.57;8.35;;;19.10;82.40;;;;;;5049614;28;20515;-69
2022/10/29 10:51:52;;;;;;;14.00;8.75;;;19.20;82.20;;;;;;5044593;28;20031;-70
2022/10/29 10:54:35;;;;;;;13.38;8.43;;;19.20;81.70;;;;;;5049719;28;20030;-68
2022/10/29 10:57:10;;;;;;;14.13;8.88;;;19.40;81.60;;;;;;5049858;28;20025;-69
2022/10/29 11:00:02;;;;;;;14.25;8.68;;;19.50;80.80;;;;;;5048023;28;20017;-69
2022/10/29 11:02:35;;;;;;;14.05;7.78;;;19.50;80.20;;;;;;5041876;28;20025;-68
2022/10/29 11:05:23;;;;;;;13.98;8.52;;;19.60;80.00;;;;;;5051855;28;20543;-69
2022/10/29 11:07:56;;;;;;;14.93;8.13;;;19.60;79.80;;;;;;5038641;28;20356;-68
2022/10/29 11:10:46;;;;;;;15.27;7.47;;;19.70;79.70;;;;;;5051796;28;20035;-68
2022/10/29 11:13:17;;;;;;;13.55;8.63;;;19.80;79.50;;;;;;5053569;28;20087;-69
2022/10/29 11:16:13;;;;;;;14.90;7.07;;;19.80;79.10;;;;;;5054172;28;20027;-69
2022/10/29 11:18:46;;;;;;;11.57;7.68;;;19.90;79.80;;;;;;5048430;28;20032;-68
2022/10/29 11:21:54;;;;;;;11.57;6.90;;;19.90;78.80;;;;;;5047434;28;20079;-68
2022/10/29 11:24:42;;;;;;;12.73;6.63;;;20.10;78.40;;;;;;5045852;28;20045;-68
2022/10/29 11:27:26;;;;;;;14.00;6.97;;;20.10;78.20;;;;;;5044704;28;20017;-68
2022/10/29 11:30:02;;;;;;;13.85;6.72;;;20.20;77.70;;;;;;5044648;28;20036;-68
2022/10/29 11:32:37;;;;;;;11.95;6.20;;;20.30;77.40;;;;;;5044558;28;20017;-68
2022/10/29 11:35:12;;;;;;;13.10;6.20;;;20.50;77.30;;;;;;5045793;28;20017;-68
2022/10/29 11:38:03;;;;;;;13.50;6.40;;;20.60;76.90;;;;;;5045676;28;20021;-69
2022/10/29 11:40:34;;;;;;;12.48;6.90;;;21.10;76.30;;;;;;5043600;28;20029;-69
2022/10/29 11:43:02;;;;;;;11.63;6.40;;;21.50;74.60;;;;;;5042048;28;20020;-70
2022/10/29 11:45:42;;;;;;;11.02;6.82;;;22.20;73.70;;;;;;5043611;28;20056;-69
2022/10/29 11:48:32;;;;;;;12.70;7.15;;;22.60;71.50;;;;;;5043159;28;20100;-69
2022/10/29 11:51:09;;;;;;;9.63;5.82;;;23.40;69.40;;;;;;5044331;28;20057;-69
2022/10/29 11:53:44;;;;;;;12.65;6.50;;;23.80;67.80;;;;;;5042311;28;20112;-69
2022/10/29 11:56:18;;;;;;;11.52;5.70;;;24.00;67.00;;;;;;5042304;28;20051;-69
2022/10/29 11:58:54;;;;;;;9.95;5.60;;;23.70;66.90;;;;;;5043302;28;20068;-69
2022/10/29 12:01:19;;;;;;;9.73;5.15;;;23.00;69.10;;;;;;5043034;28;20056;-69
2022/10/29 12:03:58;;;;;;;8.60;4.75;;;22.50;70.60;;;;;;5047916;28;20052;-69
2022/10/29 12:07:10;;;;;;;10.50;5.47;;;22.30;71.40;;;;;;5050913;28;20702;-69
2022/10/29 12:10:02;;;;;;;10.05;5.30;;;22.00;71.90;;;;;;5048690;28;20094;-68
2022/10/29 12:12:50;;;;;;;13.93;7.43;;;21.80;72.80;;;;;;5044662;28;20036;-69
2022/10/29 12:15:40;;;;;;;12.43;6.47;;;21.70;73.00;;;;;;5044149;28;20029;-69
2022/10/29 12:18:05;;;;;;;11.43;6.20;;;21.70;72.90;;;;;;5044222;28;20013;-68
2022/10/29 12:20:43;;;;;;;14.50;6.82;;;21.70;72.90;;;;;;5043096;28;20483;-69
2022/10/29 12:23:24;;;;;;;17.70;10.23;;;21.80;72.80;;;;;;5041602;28;20026;-69
2022/10/29 12:26:17;;;;;;;11.25;6.97;;;21.80;72.60;;;;;;5042634;28;20489;-69
2022/10/29 12:28:57;;;;;;;13.57;6.95;;;21.80;72.50;;;;;;5043112;28;20028;-68
2022/10/29 12:31:29;;;;;;;12.43;5.28;;;21.80;72.40;;;;;;5043444;28;20065;-69
2022/10/29 12:34:02;;;;;;;14.38;9.00;;;21.80;72.40;;;;;;5041614;28;20018;-69
2022/10/29 12:36:51;;;;;;;15.57;9.38;;;21.80;72.10;;;;;;5041322;28;20018;-68
2022/10/29 12:39:34;;;;;;;28.40;18.25;;;21.90;72.20;;;;;;5042598;28;20062;-68
2022/10/29 12:42:24;;;;;;;15.02;9.10;;;21.90;72.10;;;;;;5043351;28;20105;-69
2022/10/29 12:44:53;;;;;;;18.55;12.05;;;22.00;72.20;;;;;;5036483;28;20043;-69
2022/10/29 12:47:42;;;;;;;14.13;8.00;;;22.10;71.70;;;;;;5039471;28;20398;-66
2022/10/29 12:50:30;;;;;;;11.00;6.20;;;22.30;71.60;;;;;;5040752;28;20082;-66
2022/10/29 12:53:27;;;;;;;11.32;6.93;;;22.50;71.00;;;;;;5042285;28;20017;-69
2022/10/29 12:55:54;;;;;;;11.18;5.63;;;22.70;70.10;;;;;;5041500;28;20484;-69
2022/10/29 12:58:45;;;;;;;9.75;5.13;;;22.70;68.70;;;;;;5041708;28;20021;-69
2022/10/29 13:01:25;;;;;;;12.48;5.60;;;22.90;68.40;;;;;;5043758;28;20028;-69